createdAt,value
2023-03-26T00:07:35.490Z,100.0
2023-03-26T00:12:35.512Z,100.0
2023-03-26T00:22:35.508Z,100.0
2023-03-26T00:47:35.559Z,100.0
2023-03-26T00:52:35.546Z,100.0
2023-03-26T00:57:36.395Z,100.0
2023-03-26T01:02:36.756Z,100.0
2023-03-26T01:07:35.535Z,100.0
2023-03-26T01:12:35.680Z,100.0
2023-03-26T01:17:35.555Z,100.0
2023-03-26T01:22:35.536Z,100.0
2023-03-26T01:32:35.674Z,100.0
2023-03-26T01:37:35.522Z,100.0
2023-03-26T01:47:35.587Z,100.0
2023-03-26T01:57:35.543Z,100.0
2023-03-26T02:07:35.545Z,100.0
2023-03-26T02:12:35.553Z,100.0
2023-03-26T02:17:35.610Z,100.0
2023-03-26T02:22:35.533Z,100.0
2023-03-26T02:27:35.550Z,100.0
2023-03-26T03:02:35.662Z,100.0
2023-03-26T03:32:35.613Z,100.0
2023-03-26T03:42:35.559Z,100.0
2023-03-26T03:47:35.599Z,100.0
2023-03-26T04:12:35.589Z,100.0
2023-03-26T04:17:35.620Z,100.0
2023-03-26T04:42:35.589Z,100.0
2023-03-26T04:47:35.622Z,100.0
2023-03-26T05:12:35.579Z,100.0
2023-03-26T05:37:35.617Z,100.0
2023-03-26T06:07:35.607Z,100.0
2023-03-26T06:12:35.619Z,100.0
2023-03-26T06:17:35.622Z,100.0
2023-03-26T06:43:07.569Z,100.0
2023-03-26T06:47:35.626Z,100.0
2023-03-26T06:52:35.636Z,100.0
2023-03-26T06:57:35.626Z,99.5
2023-03-26T07:07:35.628Z,98.5
2023-03-26T07:22:35.615Z,97.9
2023-03-26T07:27:35.643Z,98.5
2023-03-26T07:37:35.637Z,97.9
2023-03-26T07:42:35.648Z,96.8
2023-03-26T07:47:35.637Z,97.1
2023-03-26T07:52:35.675Z,96.6
2023-03-26T07:57:35.692Z,95.6
2023-03-26T08:07:35.638Z,96.1
2023-03-26T08:17:35.667Z,98.2
2023-03-26T08:22:35.648Z,99.8
2023-03-26T08:27:35.644Z,100.0
2023-03-26T08:32:35.686Z,100.0
2023-03-26T08:42:35.656Z,100.0
2023-03-26T08:47:35.688Z,100.0
2023-03-26T08:52:35.689Z,100.0
2023-03-26T08:57:35.671Z,100.0
2023-03-26T09:02:35.723Z,100.0
2023-03-26T09:07:35.649Z,100.0
2023-03-26T09:12:35.689Z,100.0
2023-03-26T09:22:35.677Z,97.1
2023-03-26T09:27:35.658Z,98.0
2023-03-26T09:32:35.760Z,96.4
2023-03-26T09:37:35.681Z,96.5
2023-03-26T09:42:35.671Z,94.5
2023-03-26T09:47:35.691Z,95.4
2023-03-26T09:57:35.704Z,93.6
2023-03-26T10:02:45.925Z,93.0
2023-03-26T10:07:35.676Z,92.6
2023-03-26T10:12:35.679Z,96.1
2023-03-26T10:17:35.783Z,98.2
2023-03-26T10:27:35.737Z,91.9
2023-03-26T10:32:35.755Z,91.9
2023-03-26T10:37:35.666Z,93.8
2023-03-26T10:42:35.679Z,93.4
2023-03-26T10:47:36.830Z,91.2
2023-03-26T10:52:35.696Z,91.2
2023-03-26T10:57:35.692Z,85.1
2023-03-26T11:02:35.693Z,84.9
2023-03-26T11:07:35.688Z,88.4
2023-03-26T11:12:35.734Z,95.0
2023-03-26T11:17:40.134Z,95.0
2023-03-26T11:22:35.688Z,99.5
2023-03-26T11:27:35.701Z,100.0
2023-03-26T11:37:35.723Z,100.0
2023-03-26T11:42:35.709Z,100.0
2023-03-26T11:47:35.790Z,100.0
2023-03-26T12:02:35.940Z,100.0
2023-03-26T12:07:35.687Z,100.0
2023-03-26T12:12:35.701Z,100.0
2023-03-26T12:17:35.746Z,100.0
2023-03-26T12:27:35.707Z,100.0
2023-03-26T12:37:35.737Z,100.0
2023-03-26T12:44:43.143Z,100.0
2023-03-26T12:47:59.507Z,100.0
2023-03-26T12:52:35.721Z,100.0
2023-03-26T12:57:35.753Z,100.0
2023-03-26T13:02:35.834Z,100.0
2023-03-26T13:07:35.749Z,100.0
2023-03-26T13:12:35.723Z,100.0
2023-03-26T13:17:35.781Z,100.0
2023-03-26T13:22:35.745Z,100.0
2023-03-26T13:27:35.739Z,100.0
2023-03-26T13:37:35.757Z,99.3
2023-03-26T13:42:35.752Z,98.7
2023-03-26T13:47:35.794Z,97.4
2023-03-26T13:52:35.748Z,96.5
2023-03-26T13:57:35.736Z,94.3
2023-03-26T14:02:35.763Z,94.1
2023-03-26T14:07:35.776Z,89.7
2023-03-26T14:12:35.748Z,86.7
2023-03-26T14:17:35.792Z,84.7
2023-03-26T14:22:35.737Z,84.2
2023-03-26T14:32:35.802Z,83.9
2023-03-26T14:37:35.758Z,86.2
2023-03-26T14:42:36.420Z,86.3
2023-03-26T14:47:35.927Z,82.0
2023-03-26T14:52:35.762Z,82.5
2023-03-26T14:57:35.772Z,82.1
2023-03-26T15:07:35.784Z,82.2
2023-03-26T15:12:35.774Z,80.6
2023-03-26T15:22:35.762Z,79.6
2023-03-26T15:27:35.769Z,79.9
2023-03-26T15:32:35.823Z,79.1
2023-03-26T15:37:35.773Z,79.1
2023-03-26T15:42:37.885Z,80.7
2023-03-26T15:47:35.815Z,79.4
2023-03-26T15:52:35.779Z,76.8
2023-03-26T15:57:35.774Z,77.5
2023-03-26T16:02:35.779Z,79.3
2023-03-26T16:12:35.807Z,78.9
2023-03-26T16:17:35.812Z,77.4
2023-03-26T16:22:35.767Z,79.3
2023-03-26T16:27:35.796Z,79.2
2023-03-26T16:37:35.772Z,78.7
2023-03-26T16:42:35.807Z,76.6
2023-03-26T16:47:35.812Z,77.8
2023-03-26T16:52:35.806Z,77.7
2023-03-26T16:57:35.785Z,77.0
2023-03-26T17:07:35.806Z,74.3
2023-03-26T17:12:35.797Z,79.4
2023-03-26T17:32:35.822Z,74.0
2023-03-26T17:37:35.801Z,74.9
2023-03-26T17:42:36.113Z,72.6
2023-03-26T17:47:35.873Z,76.7
2023-03-26T17:52:35.803Z,76.3
2023-03-26T17:57:35.804Z,75.5
2023-03-26T18:02:36.031Z,71.5
2023-03-26T18:07:35.821Z,75.8
2023-03-26T18:12:35.859Z,73.0
2023-03-26T18:17:35.880Z,73.0
2023-03-26T18:22:35.845Z,72.2
2023-03-26T18:27:35.810Z,71.5
2023-03-26T18:32:35.863Z,73.8
2023-03-26T18:37:35.857Z,74.9
2023-03-26T18:42:35.840Z,69.8
2023-03-26T18:52:35.833Z,72.6
2023-03-26T18:57:35.821Z,70.1
2023-03-26T19:02:35.997Z,72.3
2023-03-26T19:07:35.821Z,68.6
2023-03-26T19:12:35.825Z,69.4
2023-03-26T19:17:35.848Z,74.2
2023-03-26T19:22:35.842Z,68.0
2023-03-26T19:27:35.840Z,66.7
2023-03-26T19:32:35.853Z,68.4
2023-03-26T19:37:35.843Z,71.2
2023-03-26T19:42:43.685Z,67.5
2023-03-26T19:47:48.426Z,70.2
2023-03-26T19:52:35.843Z,66.2
2023-03-26T20:02:36.029Z,75.2
2023-03-26T20:07:36.464Z,69.9
2023-03-26T20:12:35.844Z,72.9
2023-03-26T20:22:35.878Z,72.7
2023-03-26T20:32:35.862Z,77.1
2023-03-26T20:37:35.872Z,76.5
2023-03-26T20:42:35.864Z,74.6
2023-03-26T20:47:35.863Z,73.8
2023-03-26T20:52:35.849Z,73.7
2023-03-26T20:57:35.860Z,74.2
2023-03-26T21:02:36.002Z,77.0
2023-03-26T21:12:35.860Z,76.0
2023-03-26T21:17:35.926Z,72.9
2023-03-26T21:32:35.899Z,76.1
2023-03-26T21:37:35.872Z,81.5
2023-03-26T21:42:35.885Z,76.4
2023-03-26T21:47:35.889Z,76.4
2023-03-26T21:52:35.894Z,78.8
2023-03-26T21:57:35.889Z,78.0
2023-03-26T22:02:35.941Z,79.1
2023-03-26T22:07:35.884Z,78.5
2023-03-26T22:17:35.982Z,80.7
2023-03-26T22:22:35.885Z,78.8
2023-03-26T22:32:35.902Z,79.0
2023-03-26T22:37:35.890Z,78.3
2023-03-26T22:42:35.878Z,81.0
2023-03-26T22:47:35.976Z,79.5
2023-03-26T22:52:35.884Z,80.9
2023-03-26T23:07:35.876Z,82.4
2023-03-26T23:12:35.901Z,79.9
2023-03-26T23:17:36.016Z,80.1
2023-03-26T23:22:35.890Z,82.4
2023-03-26T23:32:35.934Z,81.2
2023-03-26T23:37:35.906Z,82.1
2023-03-26T23:42:35.898Z,81.6
2023-03-26T23:47:35.932Z,81.0
2023-03-26T23:52:35.885Z,81.5
